Overview Statistics Trail Chart Weather Telemetry Raw packets
 

This is the latest recevied weather packets stored in our database for station/object VE8SKI. If no packets are shown the sender has not sent any weather packets the latest 10 day(s).

<< 36 37 38 39 40 41 42 >>
Time Temp. Humidity Pressure Rain* Wind** Luminosity Snow
1777859253 1.11° C 72% 1021.3 hPa 0 mm 1.79 m/s, 42° - -
1777858954 1.11° C 71% 1021.3 hPa 0 mm 2.24 m/s, 52° - -
1777858654 1.11° C 71% 1021.3 hPa 0 mm 1.79 m/s, 63° - -
1777858355 1.11° C 71% 1021.2 hPa 0 mm 1.34 m/s, 83° - -
1777858055 1.11° C 72% 1021.1 hPa 0 mm 0.89 m/s, 72° - -
1777857752 1.11° C 72% 1021.1 hPa 0 mm 0.89 m/s, 48° - -
1777857453 1.11° C 71% 1021 hPa 0 mm 1.79 m/s, 46° - -
1777857153 1.67° C 72% 1020.9 hPa 0 mm 1.79 m/s, 31° - -
1777856854 1.11° C 72% 1020.9 hPa 0 mm 0.89 m/s, 68° - -
1777856554 1.67° C 72% 1020.9 hPa 0 mm 1.34 m/s, 37° - -
1777856254 1.11° C 71% 1020.7 hPa 0 mm 1.79 m/s, 35° - -
1777855952 1.67° C 71% 1020.7 hPa 0 mm 2.24 m/s, 62° - -
1777855652 1.67° C 71% 1020.6 hPa 0 mm 2.24 m/s, 65° - -
1777855352 1.67° C 71% 1020.5 hPa 0 mm 1.34 m/s, 75° - -
1777855053 1.67° C 71% 1020.5 hPa 0 mm 2.68 m/s, 58° - -
1777854753 1.67° C 71% 1020.4 hPa 0 mm 2.68 m/s, 30° - -
1777854454 1.11° C 71% 1020.4 hPa 0 mm 3.13 m/s, 31° - -
1777854151 1.11° C 71% 1020.3 hPa 0 mm 3.13 m/s, 21° - -
1777853852 1.67° C 71% 1020.3 hPa 0 mm 3.13 m/s, 21° - -
1777853552 1.11° C 71% 1020.2 hPa 0 mm 2.24 m/s, 37° - -
1777853252 1.11° C 71% 1020.1 hPa 0 mm 2.68 m/s, 20° - -
1777852953 1.11° C 71% 1020.1 hPa 0 mm 3.13 m/s, 31° - -
1777852653 1.67° C 71% 1020 hPa 0 mm 2.68 m/s, 35° - -
1777852350 1.67° C 71% 1019.9 hPa 0 mm 1.34 m/s, 105° - -
1777852067 1.67° C 70% 1019.8 hPa 0 mm 2.24 m/s, 100° - -

* Rain latest hour (hover to see other rain measurements)
** Current wind speed in m/s (hover to see current wind gust speed)